Terminal Aerodrome Forecast
Issued by NWS

Home | Current Version | Previous Version | Text Only | Print | Product List | Glossary On
Versions: 1 2 3 4 5 6 7 8 9 10 11 12 13
004
FTUS45 KRIW 282323
TAFRKS
TAF
KRKS 282323Z 2900/2924 28012G20KT P6SM VCSH SCT060 BKN080
     FM290200 26010KT P6SM SCT090
     FM290700 21005KT P6SM FEW090
     FM291800 25007KT P6SM SCT100 BKN200
     FM292100 VRB10G16KT P6SM VCTS SCT060CB BKN120=

USA.gov is the U.S. government's official web portal to all federal, state and local government web resources and services.